aviador You're here:

KQBF Decoded Metar

in
Report Time2018-01-18 10:56:00
UTC Time2018-01-18 11:46:38
Flight Rules mvfr MVFR
WindCalm
Visibility6000 m
Phenomena:Haze
Clouds:N/A
Expected CloudBase > 15,200 ft AGL from Temp-Dew spread
CeilingNone
Temp30°C
Dew Point-8°C (8% RH)
Heat Index28.2°C
AAT27.1°C
QNH1015 hPa
Raw Report
METAR KQBF 181056Z AUTO 00000KT 6000 HZ CLR 30/M08 A2996 RMK AO2 SLPNO
WND DATA ESTMD T02951076=

Extra information for KQBF:More info

Social comments